Time;durP1;ratioP1;P1;durP2;ratioP2;P2;SDS_P1;SDS_P2;PMS_P1;PMS_P2;Temp;Humidity;BMP_temperature;BMP_pressure;BME280_temperature;BME280_humidity;BME280_pressure;Samples;Min_cycle;Max_cycle;Signal;HPM_P1;HPM_P2
2022/03/28 00:00:09;;;;;;;21.60;10.90;;;8.70;63.40;;;7.67;52.71;98209.19;4991851;28;20497;-74
2022/03/28 00:02:37;;;;;;;19.77;10.52;;;8.60;63.40;;;7.44;53.22;98211.56;4991583;28;20403;-75
2022/03/28 00:05:04;;;;;;;19.88;9.48;;;8.50;63.40;;;7.31;53.41;98213.25;4991835;28;20398;-74
2022/03/28 00:07:30;;;;;;;21.90;9.75;;;8.40;63.60;;;7.28;53.60;98208.41;4991792;28;20441;-74
2022/03/28 00:09:55;;;;;;;21.55;10.13;;;8.40;63.60;;;7.29;53.18;98206.59;4991581;28;20402;-74
2022/03/28 00:12:21;;;;;;;25.67;11.80;;;8.40;63.50;;;7.51;52.83;98213.16;4991284;28;20422;-75
2022/03/28 00:14:47;;;;;;;24.50;11.18;;;8.50;63.50;;;7.48;53.01;98199.59;4991342;28;20931;-74
2022/03/28 00:17:14;;;;;;;21.13;11.20;;;8.40;63.40;;;7.36;52.85;98205.53;4991791;28;20486;-73
2022/03/28 00:19:40;;;;;;;22.65;11.38;;;8.40;62.90;;;7.37;52.83;98199.22;4992133;28;20933;-74
2022/03/28 00:22:06;;;;;;;25.50;11.23;;;8.40;63.10;;;7.30;52.77;98201.09;4991971;28;20406;-74
2022/03/28 00:24:32;;;;;;;25.00;12.00;;;8.40;62.90;;;7.37;52.23;98193.97;4992352;28;20465;-75
2022/03/28 00:26:58;;;;;;;22.83;12.00;;;8.40;62.50;;;7.39;51.91;98194.56;4983505;28;20921;-75
2022/03/28 00:29:24;;;;;;;20.98;11.10;;;8.40;62.20;;;7.19;52.36;98193.03;4990716;28;20419;-74
2022/03/28 00:31:51;;;;;;;26.15;13.27;;;8.30;62.10;;;7.35;51.55;98192.56;4992903;28;20404;-74
2022/03/28 00:34:23;;;;;;;24.63;12.48;;;8.30;61.90;;;7.29;51.72;98185.50;4994843;28;20537;-73
2022/03/28 00:36:50;;;;;;;23.77;12.07;;;8.30;61.90;;;7.25;51.69;98174.56;4995219;28;20437;-74
2022/03/28 00:39:16;;;;;;;23.42;11.68;;;8.30;61.70;;;7.28;51.13;98170.72;4995255;28;20399;-74
2022/03/28 00:41:42;;;;;;;26.77;12.50;;;8.30;61.40;;;7.27;51.37;98180.44;4995510;28;20408;-75
2022/03/28 00:44:08;;;;;;;28.92;13.05;;;8.30;61.50;;;7.26;51.42;98165.66;4995112;28;20402;-75
2022/03/28 00:46:35;;;;;;;26.23;12.13;;;8.30;61.40;;;7.20;51.47;98166.50;4994980;28;20406;-74
2022/03/28 00:49:01;;;;;;;29.30;13.13;;;8.30;61.30;;;7.21;51.49;98164.69;4994874;28;20394;-75
2022/03/28 00:51:29;;;;;;;28.08;13.13;;;8.10;61.60;;;7.15;52.06;98174.22;4994591;28;20457;-74
2022/03/28 00:53:55;;;;;;;23.30;12.18;;;8.00;62.30;;;7.04;52.12;98168.81;4994816;28;20418;-74
2022/03/28 00:56:21;;;;;;;30.98;13.25;;;8.10;62.10;;;7.14;51.81;98164.69;4994385;28;20413;-74
2022/03/28 00:58:47;;;;;;;27.17;12.77;;;8.10;62.00;;;7.11;51.62;98162.50;4994686;28;20406;-74
2022/03/28 01:01:14;;;;;;;23.23;12.68;;;8.10;61.70;;;6.96;52.24;98167.22;4994526;28;20403;-75
2022/03/28 01:03:40;;;;;;;25.33;12.55;;;8.10;62.10;;;6.94;52.39;98167.41;4994865;28;20409;-74
2022/03/28 01:06:07;;;;;;;21.33;11.95;;;8.00;62.50;;;6.90;53.00;98166.25;4994650;28;20414;-74
2022/03/28 01:08:34;;;;;;;23.98;12.32;;;8.00;62.80;;;6.82;52.91;98158.56;4994597;28;20410;-75
2022/03/28 01:11:04;;;;;;;22.15;11.98;;;8.00;63.10;;;6.80;52.93;98157.16;4994028;28;20409;-74
2022/03/28 01:13:33;;;;;;;24.98;12.48;;;7.90;63.20;;;6.79;53.34;98160.78;4994470;28;20410;-74
2022/03/28 01:15:59;;;;;;;26.33;11.65;;;7.90;63.50;;;6.71;53.20;98161.03;5004265;28;20410;-74
2022/03/28 01:18:26;;;;;;;24.23;12.70;;;7.90;63.50;;;6.79;53.56;98155.53;4991755;28;20490;-74
2022/03/28 01:20:55;;;;;;;32.63;12.98;;;7.80;64.10;;;6.81;53.62;98145.63;4991206;28;20417;-74
2022/03/28 01:23:21;;;;;;;24.37;11.63;;;7.80;64.30;;;6.76;53.87;98142.81;4994555;28;20919;-73
2022/03/28 01:25:51;;;;;;;24.77;10.98;;;7.80;64.40;;;6.75;54.26;98149.09;4992923;28;20406;-75
2022/03/28 01:28:18;;;;;;;24.13;12.30;;;7.80;65.00;;;6.67;54.03;98136.16;4994708;28;20413;-74
2022/03/28 01:30:44;;;;;;;18.98;11.32;;;7.70;64.80;;;6.54;54.33;98139.66;4994194;28;20489;-74
2022/03/28 01:33:10;;;;;;;22.05;11.43;;;7.70;64.80;;;6.59;54.37;98134.56;4994483;28;20429;-74
2022/03/28 01:35:40;;;;;;;20.20;10.55;;;7.60;64.90;;;6.41;54.41;98131.75;4994078;28;20417;-73
2022/03/28 01:38:11;;;;;;;32.88;11.07;;;7.60;65.00;;;6.50;54.57;98130.53;4993950;28;20414;-74
2022/03/28 01:40:39;;;;;;;23.42;11.52;;;7.60;65.20;;;6.48;54.32;98128.09;4992887;28;20402;-75
2022/03/28 01:43:05;;;;;;;17.77;10.10;;;7.60;65.20;;;6.36;54.31;98134.22;4994128;28;20494;-74
2022/03/28 01:45:31;;;;;;;23.17;11.82;;;7.50;64.90;;;6.42;54.76;98123.69;4993941;28;20914;-74
2022/03/28 01:47:57;;;;;;;20.77;10.73;;;7.40;65.50;;;6.34;54.55;98121.25;4993927;28;20411;-74
2022/03/28 01:50:24;;;;;;;21.65;11.27;;;7.50;65.30;;;6.35;54.14;98116.81;4993652;28;20437;-75
2022/03/28 01:52:51;;;;;;;22.13;11.27;;;7.40;64.90;;;6.31;54.31;98118.25;4993769;28;20434;-75
2022/03/28 01:55:19;;;;;;;22.17;12.10;;;7.40;64.90;;;6.31;54.18;98111.19;4993965;28;20522;-75
2022/03/28 01:57:45;;;;;;;19.65;11.35;;;7.30;65.10;;;6.24;53.81;98112.97;4993943;28;20941;-75
2022/03/28 02:00:13;;;;;;;22.08;10.57;;;7.30;64.50;;;6.16;53.79;98110.59;4992942;28;20395;-74
2022/03/28 02:02:39;;;;;;;28.10;12.48;;;7.30;64.50;;;6.20;54.12;98112.59;4993006;28;20410;-74
2022/03/28 02:05:11;;;;;;;18.23;10.65;;;7.30;64.50;;;6.03;54.15;98111.41;4993308;28;20977;-74
2022/03/28 02:07:39;;;;;;;23.67;11.45;;;7.20;64.50;;;6.17;53.54;98107.75;4993625;28;20460;-73
2022/03/28 02:10:07;;;;;;;19.52;10.50;;;7.20;64.40;;;5.99;54.00;98104.16;4993378;28;20807;-75
2022/03/28 02:12:34;;;;;;;19.08;10.88;;;7.20;64.30;;;5.97;53.76;98109.59;4993305;28;20506;-74
2022/03/28 02:15:00;;;;;;;24.35;12.23;;;7.10;64.30;;;6.08;53.53;98098.47;4993764;28;20426;-73
2022/03/28 02:17:26;;;;;;;22.93;11.87;;;7.10;64.20;;;5.97;53.58;98095.66;4994626;28;20895;-75
2022/03/28 02:19:54;;;;;;;18.33;10.38;;;7.10;64.20;;;5.88;54.17;98097.69;4992750;28;20422;-74
2022/03/28 02:22:20;;;;;;;17.48;11.10;;;7.10;64.40;;;5.86;53.86;98097.06;4993506;28;20746;-75
2022/03/28 02:24:46;;;;;;;18.87;10.90;;;7.00;64.40;;;5.85;54.08;98100.69;4993532;28;20434;-75
2022/03/28 02:27:11;;;;;;;20.60;11.40;;;7.00;64.60;;;5.88;54.22;98099.50;4993392;28;21039;-75
2022/03/28 02:29:39;;;;;;;20.88;11.25;;;7.00;64.70;;;5.82;54.34;98095.84;4993191;28;20411;-75
2022/03/28 02:32:06;;;;;;;17.45;10.48;;;7.00;64.70;;;5.76;54.30;98092.22;4993075;28;20533;-75
2022/03/28 02:34:32;;;;;;;21.20;11.23;;;6.90;64.70;;;5.76;54.14;98091.41;4991848;28;20879;-75
2022/03/28 02:36:58;;;;;;;23.95;11.50;;;6.90;64.80;;;5.76;54.16;98086.16;4992839;28;20417;-74
2022/03/28 02:39:25;;;;;;;21.27;12.35;;;6.90;64.70;;;5.78;54.16;98089.38;4993054;28;20502;-74
2022/03/28 02:41:51;;;;;;;18.25;10.55;;;6.90;64.70;;;5.70;54.13;98082.53;4992434;28;20807;-74
2022/03/28 02:44:17;;;;;;;19.15;10.55;;;6.90;64.70;;;5.69;54.26;98086.16;4991536;28;20422;-74
2022/03/28 02:46:45;;;;;;;20.70;11.32;;;6.90;64.70;;;5.67;54.48;98079.47;4990775;28;20501;-74
2022/03/28 02:49:11;;;;;;;17.67;10.57;;;6.90;64.90;;;5.61;54.45;98081.09;4992620;28;20406;-75
2022/03/28 02:51:37;;;;;;;17.52;11.38;;;6.80;64.90;;;5.63;54.65;98076.47;4984054;28;20468;-75
2022/03/28 02:54:03;;;;;;;19.85;11.07;;;6.80;65.30;;;5.59;54.50;98075.22;4990707;28;20840;-74
2022/03/28 02:56:29;;;;;;;18.52;10.55;;;6.80;65.20;;;5.57;54.67;98071.19;4992328;28;20434;-74
2022/03/28 02:58:55;;;;;;;20.02;11.80;;;6.70;65.30;;;5.66;54.90;98083.09;4992525;28;20911;-74
2022/03/28 03:01:21;;;;;;;23.15;12.43;;;6.80;65.70;;;5.61;54.86;98075.84;4991979;28;20410;-74
2022/03/28 03:03:48;;;;;;;21.80;11.98;;;6.80;65.60;;;5.56;54.71;98080.09;4992612;28;20403;-75
2022/03/28 03:06:14;;;;;;;20.13;10.90;;;6.70;65.50;;;5.52;54.95;98074.44;4992483;28;20760;-76
2022/03/28 03:08:40;;;;;;;19.07;11.17;;;6.70;65.60;;;5.50;54.71;98065.94;4992854;28;20461;-75
2022/03/28 03:11:06;;;;;;;16.25;10.32;;;6.70;65.60;;;5.45;54.96;98063.94;4992307;28;20796;-75
2022/03/28 03:13:32;;;;;;;18.98;11.27;;;6.60;65.50;;;5.51;55.24;98067.56;4992401;28;20410;-75
2022/03/28 03:15:59;;;;;;;23.50;12.05;;;6.60;65.80;;;5.56;54.46;98065.16;4992400;28;20406;-76
2022/03/28 03:18:25;;;;;;;23.23;11.02;;;6.70;65.50;;;5.44;54.84;98054.44;4992684;28;20446;-75
2022/03/28 03:20:52;;;;;;;29.10;13.33;;;6.60;65.50;;;5.44;54.95;98058.88;4991363;28;20492;-75
2022/03/28 03:23:18;;;;;;;22.98;12.80;;;6.60;65.80;;;5.49;55.40;98056.44;4992354;28;20748;-76
2022/03/28 03:25:44;;;;;;;25.13;12.68;;;6.60;66.30;;;5.43;55.37;98062.50;4992260;28;20407;-76
2022/03/28 03:28:10;;;;;;;21.50;12.43;;;6.60;66.50;;;5.50;55.53;98054.63;4992435;28;20402;-76
2022/03/28 03:30:35;;;;;;;19.77;11.90;;;6.60;66.70;;;5.40;55.44;98052.41;4991775;28;20409;-76
2022/03/28 03:33:01;;;;;;;17.95;10.98;;;6.50;66.60;;;5.31;55.52;98053.63;4992049;28;20896;-76
2022/03/28 03:35:27;;;;;;;24.03;12.63;;;6.50;66.50;;;5.43;55.26;98055.44;4991872;28;20414;-77
2022/03/28 03:37:55;;;;;;;22.52;12.43;;;6.50;66.50;;;5.40;55.80;98053.22;5022883;22;20440;-77
2022/03/28 03:40:21;;;;;;;22.90;13.52;;;6.50;66.90;;;5.34;55.50;98051.38;5003511;28;20405;-76
2022/03/28 03:42:46;;;;;;;23.23;13.00;;;6.40;67.00;;;5.33;55.86;98049.78;5010937;28;20928;-76
2022/03/28 03:45:14;;;;;;;20.73;11.87;;;6.40;67.10;;;5.26;55.79;98051.56;5010991;28;20404;-77
2022/03/28 03:47:40;;;;;;;19.90;11.13;;;6.40;67.00;;;5.22;55.67;98045.13;5010976;28;20491;-77
2022/03/28 03:50:07;;;;;;;19.50;11.68;;;6.40;66.90;;;5.22;55.59;98058.25;5010597;28;20955;-76
2022/03/28 03:52:34;;;;;;;26.65;12.95;;;6.40;67.10;;;5.26;56.07;98051.56;5010781;28;20409;-76
2022/03/28 03:55:01;;;;;;;28.33;12.73;;;6.40;67.30;;;5.29;56.21;98053.00;5010021;28;20470;-77
2022/03/28 03:57:27;;;;;;;22.60;13.30;;;6.40;67.40;;;5.33;56.41;98054.22;5010884;28;20401;-79
2022/03/28 03:59:53;;;;;;;21.95;12.77;;;6.40;67.70;;;5.25;56.21;98051.81;5010530;28;20923;-77
2022/03/28 04:02:19;;;;;;;22.52;12.43;;;6.30;67.70;;;5.19;56.04;98052.59;5010568;28;20958;-76
2022/03/28 04:04:45;;;;;;;24.33;12.90;;;6.30;67.50;;;5.15;56.40;98046.94;5010782;28;20965;-77
2022/03/28 04:07:11;;;;;;;20.38;12.48;;;6.30;67.80;;;5.16;56.67;98047.75;5011275;28;20455;-82
2022/03/28 04:09:37;;;;;;;19.80;12.38;;;6.30;68.00;;;5.11;56.50;98043.13;5007568;28;20439;-79
2022/03/28 04:12:06;;;;;;;25.48;13.50;;;6.30;68.00;;;5.14;56.73;98044.50;5003305;28;20780;-77
2022/03/28 04:14:31;;;;;;;25.88;14.27;;;6.20;68.50;;;5.17;57.08;98050.19;5002531;28;20960;-81
2022/03/28 04:16:57;;;;;;;26.50;13.60;;;6.20;68.50;;;5.14;57.03;98047.13;5008648;28;20401;-77
2022/03/28 04:19:23;;;;;;;25.98;13.80;;;6.20;68.80;;;5.05;57.10;98049.94;5010590;28;20462;-85
2022/03/28 04:21:49;;;;;;;21.27;13.23;;;6.20;68.80;;;5.05;56.70;98046.50;5010538;28;20886;-78
2022/03/28 04:24:15;;;;;;;23.80;12.65;;;6.20;68.50;;;5.03;57.33;98048.53;5010790;28;20755;-81
2022/03/28 04:26:41;;;;;;;26.98;14.15;;;6.10;68.90;;;5.06;57.61;98043.69;5003708;28;20414;-80
2022/03/28 04:29:09;;;;;;;22.75;12.73;;;6.10;69.50;;;5.02;57.34;98052.19;5009341;28;20910;-80
2022/03/28 04:31:37;;;;;;;24.58;13.48;;;6.10;69.30;;;4.96;57.36;98043.25;5010146;28;20491;-81
2022/03/28 04:34:03;;;;;;;24.40;14.10;;;6.10;69.30;;;4.94;57.83;98047.91;5011132;28;21010;-81
2022/03/28 04:36:29;;;;;;;28.13;14.35;;;6.00;69.70;;;4.93;58.17;98038.44;5002874;28;20521;-80
2022/03/28 04:38:55;;;;;;;28.55;14.45;;;6.00;70.10;;;4.86;57.68;98037.59;5000673;28;20479;-79
2022/03/28 04:41:21;;;;;;;28.50;14.55;;;6.00;70.00;;;4.81;58.32;98040.00;4998865;28;20976;-80
2022/03/28 04:43:47;;;;;;;26.33;13.48;;;5.90;70.40;;;4.80;58.04;98037.59;5008814;28;20486;-79
2022/03/28 04:46:14;;;;;;;22.80;13.77;;;5.90;70.20;;;4.82;57.93;98043.44;5010066;28;20419;-79
2022/03/28 04:48:40;;;;;;;24.73;15.07;;;6.00;70.40;;;4.77;58.49;98044.03;5010244;28;20415;-79
2022/03/28 04:51:08;;;;;;;23.30;13.37;;;5.90;70.50;;;4.71;58.40;98034.34;5007648;28;20419;-78
2022/03/28 04:53:34;;;;;;;23.45;12.82;;;5.80;70.50;;;4.64;58.25;98041.38;5007185;28;20405;-78
2022/03/28 04:56:00;;;;;;;26.73;14.15;;;5.80;70.50;;;4.73;58.57;98037.59;5003364;28;20811;-77
2022/03/28 04:58:26;;;;;;;23.98;13.50;;;5.80;70.90;;;4.65;58.88;98043.81;5010457;28;20424;-77
2022/03/28 05:00:52;;;;;;;23.27;12.50;;;5.80;71.00;;;4.57;58.39;98043.19;5010854;28;20715;-77
2022/03/28 05:03:20;;;;;;;19.80;12.63;;;5.70;70.80;;;4.55;58.72;98038.13;5011297;28;20409;-78
2022/03/28 05:05:46;;;;;;;30.30;14.23;;;5.70;70.80;;;4.60;58.97;98043.56;5010172;28;20792;-77
2022/03/28 05:08:12;;;;;;;22.63;13.73;;;5.70;71.20;;;4.53;58.40;98037.50;5008495;28;20447;-79
2022/03/28 05:10:38;;;;;;;25.52;13.77;;;5.70;71.00;;;4.50;59.02;98037.09;5011188;28;20815;-80
2022/03/28 05:13:04;;;;;;;24.57;13.83;;;5.70;71.40;;;4.56;59.55;98039.75;5009641;28;20470;-77
2022/03/28 05:15:31;;;;;;;28.48;14.25;;;5.70;72.00;;;4.56;59.15;98042.38;5025037;28;20785;-80
2022/03/28 05:17:58;;;;;;;25.60;15.15;;;5.70;71.70;;;4.52;59.42;98040.31;5023034;28;20394;-77
2022/03/28 05:20:25;;;;;;;23.83;13.32;;;5.60;72.00;;;4.50;59.35;98037.91;5018365;28;20412;-80
2022/03/28 05:22:54;;;;;;;22.13;12.57;;;5.70;72.10;;;4.50;59.52;98037.09;5004714;28;20418;-87
2022/03/28 05:25:20;;;;;;;26.65;14.30;;;5.70;71.90;;;4.53;59.67;98040.13;5002152;28;20501;-77
2022/03/28 05:27:47;;;;;;;28.45;14.65;;;5.70;72.40;;;4.51;59.38;98039.50;5008992;28;20425;-77
2022/03/28 05:30:16;;;;;;;24.80;14.02;;;5.70;72.30;;;4.56;59.68;98042.38;4999507;28;20403;-76
2022/03/28 05:32:42;;;;;;;25.55;14.45;;;5.70;72.20;;;4.56;60.49;98045.00;5003346;28;20486;-79
2022/03/28 05:35:09;;;;;;;24.30;14.10;;;5.60;73.50;;;4.54;60.31;98039.13;5005766;28;20509;-78
2022/03/28 05:37:37;;;;;;;23.45;13.88;;;5.70;73.60;;;4.53;60.45;98040.13;5003134;28;20413;-78
2022/03/28 05:40:04;;;;;;;20.15;13.07;;;5.70;73.40;;;4.50;60.03;98040.53;5004831;28;20527;-77
2022/03/28 05:42:30;;;;;;;28.80;14.77;;;5.70;73.20;;;4.58;60.44;98039.56;5002396;28;20409;-77
2022/03/28 05:44:56;;;;;;;22.27;12.95;;;5.70;73.80;;;4.56;60.35;98037.13;5003150;28;20485;-77
2022/03/28 05:47:22;;;;;;;25.58;14.65;;;5.70;73.40;;;4.65;60.59;98035.94;5002190;28;20476;-78
2022/03/28 05:49:48;;;;;;;25.43;13.50;;;5.80;73.80;;;4.61;60.29;98041.75;5003465;28;20515;-77
2022/03/28 05:52:14;;;;;;;26.13;13.93;;;5.80;73.40;;;4.72;60.78;98043.03;5001820;28;20414;-77
2022/03/28 05:54:41;;;;;;;24.33;13.77;;;5.80;73.90;;;4.68;60.58;98040.78;5003148;28;20420;-77
2022/03/28 05:57:07;;;;;;;22.07;13.30;;;5.90;73.60;;;4.70;60.40;98039.78;4995804;28;20446;-78
2022/03/28 05:59:34;;;;;;;24.98;14.27;;;5.80;73.40;;;4.79;60.40;98036.78;4993431;28;20464;-79
2022/03/28 06:02:00;;;;;;;24.60;13.95;;;5.90;74.30;;;4.86;60.23;98037.59;4993118;28;20438;-76
2022/03/28 06:04:26;;;;;;;23.58;13.30;;;6.00;73.70;;;4.89;60.23;98033.75;4993261;28;20499;-76
2022/03/28 06:06:52;;;;;;;20.90;12.23;;;6.00;73.40;;;4.93;59.91;98042.88;4993271;28;20426;-78
2022/03/28 06:09:18;;;;;;;20.70;11.25;;;6.00;73.20;;;4.97;59.71;98042.25;4999961;28;20412;-84
2022/03/28 06:11:45;;;;;;;25.75;14.23;;;6.10;73.00;;;5.12;60.02;98042.06;5006360;28;20421;-84
2022/03/28 06:14:11;;;;;;;27.52;14.38;;;6.20;73.30;;;5.15;59.77;98043.50;5000808;28;20473;-83
2022/03/28 06:16:37;;;;;;;25.02;14.35;;;6.20;73.00;;;5.23;60.05;98040.69;5001282;28;20880;-84
2022/03/28 06:19:03;;;;;;;21.75;13.02;;;6.30;73.90;;;5.31;59.89;98038.69;5019510;28;20406;-83
2022/03/28 06:21:32;;;;;;;22.35;12.45;;;6.40;73.40;;;5.43;59.69;98034.44;5004238;28;20890;-84
2022/03/28 06:23:58;;;;;;;20.08;11.85;;;6.50;72.90;;;5.55;59.12;98044.34;5011642;28;20778;-85
2022/03/28 06:26:24;;;;;;;17.73;10.90;;;6.60;72.50;;;5.63;58.80;98042.31;5006166;28;20738;-84
2022/03/28 06:28:52;;;;;;;23.55;12.80;;;6.70;72.10;;;5.72;58.74;98035.81;5002231;28;20465;-85
2022/03/28 06:31:18;;;;;;;17.60;10.70;;;6.80;71.90;;;5.82;58.47;98051.19;5009733;28;20493;-85
2022/03/28 06:33:44;;;;;;;19.33;12.20;;;6.90;71.60;;;5.92;58.21;98045.53;5002594;28;20911;-85
2022/03/28 06:36:10;;;;;;;18.02;11.00;;;6.90;71.30;;;6.00;58.05;98050.59;4995902;28;20517;-84
2022/03/28 06:38:38;;;;;;;19.50;12.00;;;7.00;71.00;;;6.08;57.73;98053.81;4993872;28;20410;-89
2022/03/28 06:41:04;;;;;;;20.08;11.65;;;7.10;70.80;;;6.18;57.62;98053.34;5000952;28;20460;-83
2022/03/28 06:43:30;;;;;;;20.67;11.80;;;7.20;70.50;;;6.25;57.56;98062.03;5000273;28;20920;-83
2022/03/28 06:45:58;;;;;;;17.38;11.10;;;7.30;70.50;;;6.33;57.47;98063.63;5000925;28;20438;-83
2022/03/28 06:48:24;;;;;;;23.33;13.00;;;7.30;70.50;;;6.40;57.43;98056.53;5001015;28;20406;-84
2022/03/28 06:50:50;;;;;;;21.60;12.23;;;7.40;70.40;;;6.48;57.43;98056.28;5001966;28;20407;-84
2022/03/28 06:53:16;;;;;;;18.13;11.57;;;7.40;70.10;;;6.56;57.18;98059.50;5007951;28;20481;-85
2022/03/28 06:55:42;;;;;;;19.17;11.18;;;7.60;70.10;;;6.64;57.39;98063.72;5012245;28;20413;-86
2022/03/28 06:58:08;;;;;;;15.77;10.90;;;7.60;70.10;;;6.72;57.10;98049.50;5012232;28;20404;-85
2022/03/28 07:00:34;;;;;;;22.65;12.88;;;7.70;70.10;;;6.81;57.09;98050.88;5027654;28;20404;-86
2022/03/28 07:03:01;;;;;;;19.25;11.38;;;7.80;69.90;;;6.88;57.11;98049.84;5011526;28;20472;-86
2022/03/28 07:05:28;;;;;;;26.45;13.23;;;7.80;69.80;;;6.96;57.17;98049.59;5013660;28;20401;-85
2022/03/28 07:07:56;;;;;;;20.98;12.52;;;8.00;69.90;;;7.04;57.06;98043.28;5011600;28;20902;-86
2022/03/28 07:10:22;;;;;;;21.17;12.40;;;8.00;70.00;;;7.13;57.01;98043.81;5012035;28;20405;-86
2022/03/28 07:12:51;;;;;;;22.35;12.13;;;8.10;69.90;;;7.22;56.92;98042.53;5012184;28;20405;-86
2022/03/28 07:15:17;;;;;;;20.50;12.20;;;8.20;69.90;;;7.30;56.88;98037.00;5011809;28;20461;-85
2022/03/28 07:17:48;;;;;;;18.65;11.63;;;8.20;69.70;;;7.38;56.73;98037.56;5010579;28;20926;-86
2022/03/28 07:20:17;;;;;;;22.88;12.82;;;8.40;69.70;;;7.48;56.67;98044.97;5010115;28;20450;-86
2022/03/28 07:22:43;;;;;;;22.23;13.23;;;8.40;69.50;;;7.56;56.43;98052.63;5010719;28;20454;-86
2022/03/28 07:25:10;;;;;;;22.23;12.80;;;8.50;69.50;;;7.65;56.54;98053.97;5011107;28;20405;-86
2022/03/28 07:27:37;;;;;;;24.33;13.55;;;8.60;69.40;;;7.76;56.37;98052.44;5010776;28;20567;-85
2022/03/28 07:30:06;;;;;;;22.55;13.32;;;8.70;69.20;;;7.84;56.06;98054.81;5003352;28;20462;-86
2022/03/28 07:32:32;;;;;;;21.85;12.30;;;8.80;68.90;;;7.93;55.90;98048.22;5007810;28;20505;-82
2022/03/28 07:34:58;;;;;;;24.13;13.13;;;8.90;68.70;;;8.03;55.76;98051.19;4997159;28;20416;-79
2022/03/28 07:37:26;;;;;;;26.27;14.00;;;8.90;68.40;;;8.15;55.47;98041.50;5001356;28;20414;-80
2022/03/28 07:39:52;;;;;;;30.57;15.13;;;9.00;68.00;;;8.27;55.05;98046.06;4999362;28;20413;-80
2022/03/28 07:42:18;;;;;;;26.90;14.52;;;9.20;67.40;;;8.38;54.49;98048.00;5001126;28;20397;-80
2022/03/28 07:44:44;;;;;;;24.27;13.80;;;9.30;66.80;;;8.46;53.89;98045.06;5001448;28;20746;-81
2022/03/28 07:47:11;;;;;;;25.42;14.70;;;9.30;65.90;;;8.57;53.30;98041.66;5001462;28;20416;-84
2022/03/28 07:49:38;;;;;;;26.77;15.30;;;9.50;65.30;;;8.68;52.91;98040.13;5026569;28;20498;-77
2022/03/28 07:52:04;;;;;;;27.23;14.20;;;9.60;64.60;;;8.79;52.16;98034.91;5002359;28;20415;-79
2022/03/28 07:54:32;;;;;;;29.95;15.65;;;9.70;63.80;;;8.90;51.82;98033.31;5011235;28;20412;-78
2022/03/28 07:56:58;;;;;;;29.05;15.93;;;9.80;63.10;;;9.01;51.27;98026.50;5010770;28;20397;-81
2022/03/28 07:59:24;;;;;;;24.90;13.60;;;9.80;62.40;;;9.12;51.04;98031.78;5010564;28;20450;-75
2022/03/28 08:01:51;;;;;;;23.30;13.73;;;10.00;62.00;;;9.25;50.90;98033.41;4998450;28;20417;-81
2022/03/28 08:04:32;;;;;;;23.50;13.53;;;10.10;61.90;;;9.38;51.02;98027.16;4999365;28;20423;-81
2022/03/28 08:06:59;;;;;;;21.60;12.90;;;10.20;62.00;;;9.48;50.18;98025.53;5005537;28;20420;-80
2022/03/28 08:09:24;;;;;;;23.98;14.48;;;10.30;61.10;;;9.59;49.97;98030.03;5010717;28;20917;-79
2022/03/28 08:11:52;;;;;;;31.10;14.73;;;10.40;60.40;;;9.71;49.75;98030.03;5013197;28;20605;-78
2022/03/28 08:14:18;;;;;;;28.37;15.27;;;10.50;60.20;;;9.84;49.75;98021.09;5021592;28;20480;-81
2022/03/28 08:16:44;;;;;;;24.13;13.63;;;10.70;60.20;;;9.92;49.14;98026.03;5010127;28;20966;-78
2022/03/28 08:19:10;;;;;;;25.95;13.75;;;10.70;59.50;;;10.01;49.04;98014.84;5009934;28;20431;-81
2022/03/28 08:21:36;;;;;;;23.80;13.27;;;10.80;59.30;;;10.13;48.80;98022.00;5010512;28;20403;-75
2022/03/28 08:24:02;;;;;;;24.58;13.50;;;10.90;59.20;;;10.22;48.72;98021.44;5006156;28;20425;-79
2022/03/28 08:26:29;;;;;;;23.95;12.27;;;11.00;58.90;;;10.32;48.64;98013.69;5009739;28;20767;-79
2022/03/28 08:28:57;;;;;;;28.23;13.90;;;11.10;58.80;;;10.41;48.11;98012.28;5008254;28;20503;-80
2022/03/28 08:31:23;;;;;;;28.92;14.98;;;11.20;58.60;;;10.50;48.01;98011.94;5010004;28;20918;-78
2022/03/28 08:33:49;;;;;;;30.25;15.15;;;11.30;58.20;;;10.61;48.04;98013.72;5025553;28;20414;-80
2022/03/28 08:36:15;;;;;;;34.50;16.20;;;11.40;58.20;;;10.69;47.23;98010.69;5010108;28;20415;-79
2022/03/28 08:38:41;;;;;;;29.25;14.57;;;11.50;57.30;;;10.79;47.17;98002.97;5008429;28;20524;-79
2022/03/28 08:41:12;;;;;;;26.90;13.60;;;11.60;57.10;;;10.89;46.77;98000.50;5010782;28;20412;-78
2022/03/28 08:43:39;;;;;;;27.15;13.80;;;11.70;56.80;;;11.00;47.23;97996.97;5009218;28;20498;-78
2022/03/28 08:46:08;;;;;;;22.85;12.57;;;11.80;57.10;;;11.11;46.98;97992.66;5010363;28;20743;-79
2022/03/28 08:48:40;;;;;;;23.60;12.57;;;11.90;57.00;;;11.22;46.98;97999.72;5014049;28;20404;-79
2022/03/28 08:51:07;;;;;;;27.52;14.40;;;12.00;56.90;;;11.32;46.49;97994.59;5010239;28;20414;-79
2022/03/28 08:53:33;;;;;;;25.08;13.05;;;12.10;56.40;;;11.42;46.38;97999.28;5016443;28;20421;-82
2022/03/28 08:56:00;;;;;;;26.73;12.80;;;12.20;56.20;;;11.52;46.27;97994.13;5016814;28;20411;-79
2022/03/28 08:58:27;;;;;;;33.10;14.63;;;12.30;56.00;;;11.63;46.38;98001.19;5010653;28;20468;-78
2022/03/28 09:00:53;;;;;;;34.90;15.90;;;12.40;56.00;;;11.71;45.74;97998.13;5013505;28;20401;-79
2022/03/28 09:03:34;;;;;;;28.27;13.70;;;12.50;55.20;;;11.82;45.58;97997.25;5015026;28;20504;-77
2022/03/28 09:05:59;;;;;;;28.75;13.73;;;12.60;55.30;;;11.93;45.38;97993.72;5007537;28;20813;-76
2022/03/28 09:08:25;;;;;;;23.53;12.57;;;12.70;55.10;;;12.05;45.47;97982.97;5013747;28;20427;-76
2022/03/28 09:10:51;;;;;;;25.30;13.05;;;12.80;55.00;;;12.16;45.47;97987.38;5014131;28;20446;-75
2022/03/28 09:13:18;;;;;;;22.23;12.00;;;12.90;54.90;;;12.27;45.20;97986.44;5011657;28;20482;-74
2022/03/28 09:15:50;;;;;;;25.92;12.80;;;13.00;54.80;;;12.39;45.23;97989.00;5014560;28;20423;-80
2022/03/28 09:18:26;;;;;;;24.60;13.48;;;13.10;54.60;;;12.52;44.68;97977.19;5009932;28;20478;-73
2022/03/28 09:20:54;;;;;;;27.55;13.63;;;13.20;54.40;;;12.63;44.82;97966.41;5012227;28;20415;-74
2022/03/28 09:23:40;;;;;;;26.95;14.90;;;13.30;54.10;;;12.77;43.82;97969.50;5015423;28;20443;-74
2022/03/28 09:26:09;;;;;;;31.90;14.40;;;13.50;53.10;;;12.90;43.30;97965.63;5011320;28;20410;-75
2022/03/28 09:28:46;;;;;;;31.98;14.02;;;13.50;52.60;;;13.02;42.84;97955.63;5013080;28;20516;-74
2022/03/28 09:31:26;;;;;;;29.13;14.98;;;13.70;52.40;;;13.12;42.49;97959.19;5014289;28;20420;-73
2022/03/28 09:34:09;;;;;;;26.83;13.40;;;13.80;51.60;;;13.30;42.35;97954.56;5010885;28;20409;-74
2022/03/28 09:36:48;;;;;;;32.30;14.83;;;13.90;51.10;;;13.43;41.96;97952.28;5025752;22;20497;-72
2022/03/28 09:39:17;;;;;;;40.20;14.90;;;14.10;51.10;;;13.71;41.43;97937.03;4999015;28;20408;-75
2022/03/28 09:41:46;;;;;;;28.95;14.85;;;14.20;50.90;;;13.83;41.37;97942.97;4991679;28;20920;-69
2022/03/28 09:44:12;;;;;;;31.45;15.73;;;14.40;50.60;;;13.94;40.83;97939.28;4995071;28;20406;-70
2022/03/28 09:46:39;;;;;;;29.53;14.87;;;14.50;49.80;;;14.03;40.94;97935.06;4993303;28;20466;-73
2022/03/28 09:49:08;;;;;;;26.23;14.27;;;14.60;49.60;;;14.14;41.00;97934.03;4997946;28;20413;-73
2022/03/28 09:51:36;;;;;;;25.90;12.88;;;14.70;49.70;;;14.23;40.89;97924.50;4992723;28;20431;-72
2022/03/28 09:54:02;;;;;;;29.50;14.55;;;14.80;49.80;;;14.28;40.48;97923.72;4993568;28;21042;-72
2022/03/28 09:56:28;;;;;;;27.35;14.23;;;14.90;49.40;;;14.41;40.67;97919.78;4993057;28;20410;-72
2022/03/28 09:58:58;;;;;;;21.77;12.82;;;15.00;49.60;;;14.55;40.64;97920.91;4993420;28;20501;-72
2022/03/28 10:01:29;;;;;;;21.70;12.32;;;15.10;49.60;;;14.67;40.64;97908.91;5000973;28;20473;-72
2022/03/28 10:04:00;;;;;;;28.27;13.93;;;15.20;49.60;;;14.80;39.82;97902.28;5003436;28;20945;-72
2022/03/28 10:06:29;;;;;;;24.90;14.00;;;15.40;48.80;;;14.98;39.43;97912.41;5004806;28;20478;-71
2022/03/28 10:08:55;;;;;;;29.58;14.68;;;15.50;48.20;;;15.16;38.58;97908.44;4992710;28;20508;-73
2022/03/28 10:11:21;;;;;;;25.03;14.00;;;15.70;47.50;;;15.52;38.65;97905.72;4991588;28;20489;-74
2022/03/28 10:13:47;;;;;;;27.45;15.55;;;15.90;47.40;;;16.07;37.79;97904.81;4991915;28;20402;-73
2022/03/28 10:16:13;;;;;;;25.05;13.40;;;16.30;46.70;;;16.98;35.93;97889.06;4994329;28;20452;-72